Time;durP1;ratioP1;P1;durP2;ratioP2;P2;SDS_P1;SDS_P2;PMS_P1;PMS_P2;Temp;Humidity;BMP_temperature;BMP_pressure;BME280_temperature;BME280_humidity;BME280_pressure;Samples;Min_cycle;Max_cycle;Signal;HPM_P1;HPM_P2
2022/08/26 00:01:57;;;;;;;4.90;3.57;;;18.50;99.90;;;;;;485789;244;28900;-68
2022/08/26 00:04:00;;;;;;;4.57;3.97;;;18.50;99.90;;;;;;485773;244;28856;-69
2022/08/26 00:06:00;;;;;;;4.53;4.13;;;18.40;99.90;;;;;;485732;244;28822;-68
2022/08/26 00:08:01;;;;;;;3.93;3.60;;;18.40;99.90;;;;;;485746;244;28855;-69
2022/08/26 00:10:02;;;;;;;4.10;3.80;;;18.30;99.90;;;;;;485807;244;29014;-72
2022/08/26 00:12:04;;;;;;;3.30;3.10;;;18.30;99.90;;;;;;485794;244;28817;-68
2022/08/26 00:14:05;;;;;;;3.43;3.23;;;18.30;99.90;;;;;;485784;244;28843;-69
2022/08/26 00:16:06;;;;;;;4.30;3.90;;;18.30;99.90;;;;;;485696;244;29277;-71
2022/08/26 00:18:07;;;;;;;4.13;3.83;;;18.30;99.90;;;;;;485670;244;29362;-69
2022/08/26 00:20:09;;;;;;;4.20;3.90;;;18.30;99.90;;;;;;485724;244;29535;-71
2022/08/26 00:22:10;;;;;;;3.30;3.10;;;18.20;99.90;;;;;;485680;244;29371;-69
2022/08/26 00:24:12;;;;;;;4.40;4.00;;;18.20;99.90;;;;;;485733;244;28848;-69
2022/08/26 00:26:12;;;;;;;3.80;3.50;;;18.30;99.90;;;;;;485684;244;28861;-68
2022/08/26 00:28:14;;;;;;;4.00;3.70;;;18.30;99.90;;;;;;485715;244;28849;-68
2022/08/26 00:30:15;;;;;;;3.90;3.60;;;18.30;99.90;;;;;;485748;244;28843;-68
2022/08/26 00:32:16;;;;;;;3.90;3.60;;;18.20;99.90;;;;;;485764;244;28826;-68
2022/08/26 00:34:17;;;;;;;3.80;3.50;;;18.10;99.90;;;;;;485747;244;28867;-69
2022/08/26 00:36:19;;;;;;;3.80;3.50;;;18.00;99.90;;;;;;485701;244;28916;-70
2022/08/26 00:38:21;;;;;;;4.13;3.73;;;18.00;99.90;;;;;;485747;244;28959;-68
2022/08/26 00:40:21;;;;;;;4.40;4.10;;;18.10;99.90;;;;;;485746;244;29914;-68
2022/08/26 00:42:22;;;;;;;3.90;3.60;;;18.00;99.90;;;;;;485712;244;29409;-68
2022/08/26 00:44:24;;;;;;;4.10;3.80;;;18.00;99.90;;;;;;485743;244;29427;-70
2022/08/26 00:46:25;;;;;;;3.80;3.50;;;18.10;99.90;;;;;;485664;244;29371;-69
2022/08/26 00:48:26;;;;;;;4.20;3.90;;;18.10;99.90;;;;;;485732;244;28932;-69
2022/08/26 00:50:27;;;;;;;4.10;3.73;;;18.10;99.90;;;;;;485757;244;28935;-68
2022/08/26 00:52:29;;;;;;;4.20;3.90;;;18.00;99.90;;;;;;485706;244;28814;-68
2022/08/26 00:54:30;;;;;;;4.10;3.80;;;18.10;99.90;;;;;;485756;244;28914;-70
2022/08/26 00:56:31;;;;;;;4.27;3.67;;;18.00;99.90;;;;;;485698;244;28852;-69
2022/08/26 00:58:32;;;;;;;4.47;4.10;;;18.00;99.90;;;;;;485684;244;28972;-68
2022/08/26 01:00:34;;;;;;;4.20;3.80;;;18.00;99.90;;;;;;485732;244;28899;-68
2022/08/26 01:02:35;;;;;;;4.60;4.20;;;18.00;99.90;;;;;;485743;244;28829;-68
2022/08/26 01:04:36;;;;;;;3.80;3.50;;;18.00;99.90;;;;;;485737;244;28938;-70
2022/08/26 01:06:38;;;;;;;3.50;3.20;;;18.00;99.90;;;;;;485684;245;28845;-68
2022/08/26 01:08:39;;;;;;;3.73;3.40;;;18.00;99.90;;;;;;485707;244;28927;-68
2022/08/26 01:10:40;;;;;;;5.70;3.70;;;17.90;99.90;;;;;;485756;244;28912;-68
2022/08/26 01:12:41;;;;;;;9.00;3.90;;;17.90;99.90;;;;;;485635;244;28804;-68
2022/08/26 01:14:44;;;;;;;4.03;3.73;;;17.90;99.90;;;;;;485675;245;28901;-70
2022/08/26 01:16:44;;;;;;;4.00;3.70;;;17.90;99.90;;;;;;485585;245;28903;-68
2022/08/26 01:18:46;;;;;;;4.27;3.90;;;17.90;99.90;;;;;;485721;244;28851;-69
2022/08/26 01:20:46;;;;;;;3.93;3.63;;;17.90;99.90;;;;;;485721;244;28818;-68
2022/08/26 01:22:49;;;;;;;4.10;3.80;;;17.80;99.90;;;;;;485777;244;29269;-68
2022/08/26 01:24:49;;;;;;;3.87;3.57;;;17.70;99.90;;;;;;485714;244;29351;-69
2022/08/26 01:26:50;;;;;;;4.03;3.73;;;17.70;99.90;;;;;;485575;244;29477;-68
2022/08/26 01:28:51;;;;;;;4.27;3.87;;;17.60;99.90;;;;;;485758;244;28939;-68
2022/08/26 01:30:53;;;;;;;4.20;3.90;;;17.60;99.90;;;;;;485732;244;28929;-68
2022/08/26 01:32:54;;;;;;;4.70;4.10;;;17.60;99.90;;;;;;485712;244;28920;-68
2022/08/26 01:34:56;;;;;;;4.00;3.70;;;17.60;99.90;;;;;;485729;244;28848;-70
2022/08/26 01:36:57;;;;;;;4.37;3.97;;;17.60;99.90;;;;;;485640;244;28805;-68
2022/08/26 01:38:58;;;;;;;4.10;3.80;;;17.60;99.90;;;;;;485720;244;29008;-69
2022/08/26 01:40:59;;;;;;;4.57;4.17;;;17.50;99.90;;;;;;485680;244;28924;-68
2022/08/26 01:43:00;;;;;;;4.23;3.87;;;17.60;99.90;;;;;;485600;244;28868;-68
2022/08/26 01:45:01;;;;;;;4.80;4.30;;;17.60;99.90;;;;;;485574;244;28844;-70
2022/08/26 01:47:03;;;;;;;3.93;3.63;;;17.60;99.90;;;;;;485452;244;29309;-68
2022/08/26 01:49:04;;;;;;;4.33;4.03;;;17.60;99.90;;;;;;485713;244;29386;-68
2022/08/26 01:51:05;;;;;;;4.03;3.63;;;17.60;99.90;;;;;;485744;244;29394;-68
2022/08/26 01:53:06;;;;;;;4.10;3.80;;;17.60;99.90;;;;;;485726;244;28822;-68
2022/08/26 01:55:08;;;;;;;4.17;3.77;;;17.60;99.90;;;;;;485701;244;28906;-72
2022/08/26 01:57:09;;;;;;;3.70;3.40;;;17.60;99.90;;;;;;485475;244;28813;-68
2022/08/26 01:59:10;;;;;;;4.23;3.83;;;17.60;99.90;;;;;;485724;244;28853;-69
2022/08/26 02:01:11;;;;;;;3.90;3.60;;;17.60;99.90;;;;;;485738;244;28946;-68
2022/08/26 02:03:15;;;;;;;4.33;3.97;;;17.60;99.90;;;;;;485721;244;28860;-68
2022/08/26 02:05:17;;;;;;;4.23;3.83;;;17.60;99.90;;;;;;485759;244;29331;-69
2022/08/26 02:07:18;;;;;;;4.23;3.93;;;17.50;99.90;;;;;;485616;244;28860;-70
2022/08/26 02:09:19;;;;;;;4.40;4.00;;;17.50;99.90;;;;;;485747;244;28818;-68
2022/08/26 02:11:20;;;;;;;4.00;3.70;;;17.50;99.90;;;;;;485729;244;28857;-69
2022/08/26 02:13:22;;;;;;;4.03;3.73;;;17.40;99.90;;;;;;485745;244;28902;-68
2022/08/26 02:15:23;;;;;;;3.93;3.53;;;17.30;99.90;;;;;;485733;244;28861;-68
2022/08/26 02:17:24;;;;;;;5.20;4.70;;;17.40;99.90;;;;;;485579;244;28855;-70
2022/08/26 02:19:25;;;;;;;4.37;3.97;;;17.40;99.90;;;;;;485738;244;28829;-68
2022/08/26 02:21:27;;;;;;;4.30;3.90;;;17.40;99.90;;;;;;485735;244;28903;-69
2022/08/26 02:23:28;;;;;;;3.80;3.50;;;17.40;99.90;;;;;;485729;244;29299;-68
2022/08/26 02:25:29;;;;;;;4.63;4.23;;;17.40;99.90;;;;;;485716;244;29377;-68
2022/08/26 02:27:31;;;;;;;3.80;3.50;;;17.40;99.90;;;;;;485451;244;29378;-70
2022/08/26 02:29:32;;;;;;;3.97;3.67;;;17.40;99.90;;;;;;485725;244;29381;-68
2022/08/26 02:31:33;;;;;;;4.70;4.30;;;17.40;99.90;;;;;;485723;244;28972;-68
2022/08/26 02:33:34;;;;;;;4.37;3.97;;;17.40;99.90;;;;;;485767;244;28812;-68
2022/08/26 02:35:35;;;;;;;4.37;4.03;;;17.30;99.90;;;;;;485750;244;28844;-69
2022/08/26 02:37:37;;;;;;;4.60;4.20;;;17.30;99.90;;;;;;485605;244;28957;-71
2022/08/26 02:39:38;;;;;;;4.00;3.70;;;17.30;99.90;;;;;;485750;244;28840;-69
2022/08/26 02:41:39;;;;;;;4.50;4.10;;;17.30;99.90;;;;;;485701;244;28853;-68
2022/08/26 02:43:40;;;;;;;3.90;3.60;;;17.30;99.90;;;;;;485740;244;28906;-67
2022/08/26 02:45:42;;;;;;;4.17;3.83;;;17.30;99.90;;;;;;485730;244;28854;-68
2022/08/26 02:47:43;;;;;;;4.40;4.00;;;17.30;99.90;;;;;;485570;244;28876;-72
2022/08/26 02:49:44;;;;;;;4.47;4.07;;;17.20;99.90;;;;;;485760;244;29388;-68
2022/08/26 02:51:45;;;;;;;3.93;3.63;;;17.20;99.90;;;;;;485769;244;29442;-69
2022/08/26 02:53:47;;;;;;;4.97;4.50;;;17.10;99.90;;;;;;485709;244;29260;-68
2022/08/26 02:55:48;;;;;;;4.40;4.00;;;17.10;99.90;;;;;;485727;244;28849;-68
2022/08/26 02:57:50;;;;;;;4.53;4.13;;;17.00;99.90;;;;;;485613;244;28862;-71
2022/08/26 02:59:50;;;;;;;4.53;4.07;;;17.00;99.90;;;;;;485668;245;28840;-69
2022/08/26 03:01:52;;;;;;;4.47;4.07;;;17.00;99.90;;;;;;485707;244;28931;-69
2022/08/26 03:03:53;;;;;;;4.47;4.07;;;17.00;99.90;;;;;;485730;244;28859;-68
2022/08/26 03:05:54;;;;;;;4.10;3.80;;;17.00;99.90;;;;;;485727;245;28943;-68
2022/08/26 03:07:55;;;;;;;4.47;4.07;;;17.00;99.90;;;;;;485530;244;28864;-72
2022/08/26 03:09:57;;;;;;;4.87;4.20;;;17.00;99.90;;;;;;485732;244;28826;-68
2022/08/26 03:11:58;;;;;;;4.57;4.17;;;17.00;99.90;;;;;;485752;244;28853;-68
2022/08/26 03:13:59;;;;;;;4.13;3.70;;;17.00;99.90;;;;;;485732;244;29363;-67
2022/08/26 03:16:00;;;;;;;4.50;4.10;;;17.00;99.90;;;;;;485695;244;29262;-68
2022/08/26 03:18:02;;;;;;;4.30;3.90;;;17.00;99.90;;;;;;485689;245;29348;-71
2022/08/26 03:20:03;;;;;;;4.60;4.20;;;16.90;99.90;;;;;;485730;244;29306;-68
2022/08/26 03:22:04;;;;;;;4.50;4.10;;;16.90;99.90;;;;;;485729;244;28928;-68
2022/08/26 03:24:05;;;;;;;4.20;3.90;;;16.90;99.90;;;;;;485702;244;28880;-68
2022/08/26 03:26:07;;;;;;;5.07;4.57;;;16.90;99.90;;;;;;485581;244;28837;-72
2022/08/26 03:28:08;;;;;;;4.73;4.13;;;16.90;99.90;;;;;;485719;244;28861;-71
2022/08/26 03:32:29;;;;;;;4.30;3.90;;;16.90;99.90;;;;;;485721;245;29315;-68
2022/08/26 03:34:30;;;;;;;4.60;4.20;;;16.90;99.90;;;;;;485700;244;29891;-70
2022/08/26 03:36:32;;;;;;;4.10;3.80;;;16.90;99.90;;;;;;485693;244;29299;-70
2022/08/26 03:38:33;;;;;;;3.70;3.40;;;16.80;99.90;;;;;;485745;244;29346;-68
2022/08/26 03:40:34;;;;;;;4.67;4.17;;;16.80;99.90;;;;;;485729;244;28857;-70
2022/08/26 03:42:35;;;;;;;4.13;3.73;;;16.80;99.90;;;;;;485748;244;28838;-68
2022/08/26 03:44:37;;;;;;;4.40;4.00;;;16.80;99.90;;;;;;485732;244;28884;-70
2022/08/26 03:46:38;;;;;;;4.57;4.17;;;16.80;99.90;;;;;;485663;244;28824;-68
2022/08/26 03:48:39;;;;;;;4.70;4.30;;;16.80;99.90;;;;;;485745;244;28851;-68
2022/08/26 03:50:40;;;;;;;4.57;4.17;;;16.80;99.90;;;;;;485765;244;28873;-71
2022/08/26 03:52:42;;;;;;;5.13;4.70;;;16.80;99.90;;;;;;485757;244;28914;-68
2022/08/26 03:54:43;;;;;;;4.83;4.43;;;16.70;99.90;;;;;;485746;244;28966;-68
2022/08/26 03:56:44;;;;;;;5.60;5.07;;;16.70;99.90;;;;;;485716;244;28821;-68
2022/08/26 03:58:45;;;;;;;4.53;4.13;;;16.70;99.90;;;;;;485751;244;29408;-68
2022/08/26 04:00:47;;;;;;;4.43;4.03;;;16.70;99.90;;;;;;485752;244;29415;-72
2022/08/26 04:02:49;;;;;;;4.80;4.40;;;16.70;99.90;;;;;;485757;244;29259;-68
2022/08/26 04:04:49;;;;;;;4.90;4.47;;;16.70;99.90;;;;;;485669;245;28864;-70
2022/08/26 04:06:50;;;;;;;4.30;3.90;;;16.70;99.90;;;;;;485671;244;28825;-68
2022/08/26 04:08:52;;;;;;;4.10;3.80;;;16.60;99.90;;;;;;485775;244;28840;-68
2022/08/26 04:10:53;;;;;;;5.30;4.80;;;16.60;99.90;;;;;;485769;244;28849;-68
2022/08/26 04:12:54;;;;;;;4.90;4.40;;;16.50;99.90;;;;;;485762;244;28824;-68
2022/08/26 04:14:55;;;;;;;5.13;4.73;;;16.40;99.90;;;;;;485756;244;28850;-71
2022/08/26 04:16:57;;;;;;;5.00;4.50;;;16.30;99.90;;;;;;485576;244;28829;-68
2022/08/26 04:18:58;;;;;;;4.53;4.13;;;16.30;99.90;;;;;;485757;244;28852;-68
2022/08/26 04:20:59;;;;;;;4.90;4.40;;;16.30;99.90;;;;;;485732;244;29245;-71
2022/08/26 04:23:00;;;;;;;4.40;4.00;;;16.30;99.90;;;;;;485738;244;29288;-67
2022/08/26 04:25:02;;;;;;;4.87;4.47;;;16.40;99.90;;;;;;485752;244;29366;-68
2022/08/26 04:27:03;;;;;;;4.90;4.50;;;16.40;99.90;;;;;;485692;244;29348;-68
2022/08/26 04:29:04;;;;;;;4.60;4.20;;;16.50;99.90;;;;;;485711;244;29321;-68
2022/08/26 04:31:07;;;;;;;4.50;4.10;;;16.50;99.90;;;;;;485766;244;28976;-72
2022/08/26 04:33:07;;;;;;;4.47;4.07;;;16.50;99.90;;;;;;485649;245;28813;-68
2022/08/26 04:35:08;;;;;;;4.63;4.10;;;16.60;99.90;;;;;;485750;244;28946;-69
2022/08/26 04:37:09;;;;;;;5.23;4.73;;;16.60;99.90;;;;;;485636;244;28832;-68
2022/08/26 04:39:18;;;;;;;4.70;4.30;;;16.50;99.90;;;;;;485743;244;28863;-70
2022/08/26 04:41:20;;;;;;;4.40;4.00;;;16.50;99.90;;;;;;485645;245;29369;-69
2022/08/26 04:43:19;;;;;;;5.27;4.77;;;16.50;99.90;;;;;;485608;245;28936;-69
2022/08/26 04:45:21;;;;;;;4.80;4.30;;;16.60;99.90;;;;;;485735;244;28845;-69
2022/08/26 04:47:22;;;;;;;5.43;4.87;;;16.60;99.90;;;;;;485688;244;28860;-67
2022/08/26 04:49:23;;;;;;;4.40;4.00;;;16.60;99.90;;;;;;485742;244;28865;-68
2022/08/26 04:51:28;;;;;;;5.10;4.63;;;16.60;99.90;;;;;;485756;244;28930;-70
2022/08/26 04:53:25;;;;;;;5.10;4.70;;;16.50;99.90;;;;;;485552;245;28923;-68
2022/08/26 04:55:27;;;;;;;4.93;4.43;;;16.60;99.90;;;;;;485714;244;28955;-68
2022/08/26 04:57:28;;;;;;;5.27;4.83;;;16.60;99.90;;;;;;485341;244;29219;-68
2022/08/26 04:59:29;;;;;;;5.23;4.60;;;16.60;99.90;;;;;;485752;244;28814;-68
2022/08/26 05:01:30;;;;;;;5.10;4.43;;;16.60;99.90;;;;;;485675;244;29295;-69
2022/08/26 05:03:32;;;;;;;5.13;4.63;;;16.50;99.90;;;;;;485743;244;29382;-69
2022/08/26 05:05:33;;;;;;;5.00;4.60;;;16.50;99.90;;;;;;485743;244;29455;-69
2022/08/26 05:07:34;;;;;;;4.93;4.53;;;16.60;99.90;;;;;;485695;244;29424;-68
2022/08/26 05:09:35;;;;;;;5.80;5.20;;;16.60;99.90;;;;;;485746;244;28805;-68
2022/08/26 05:11:37;;;;;;;5.50;5.00;;;16.60;99.90;;;;;;485732;244;28856;-69
2022/08/26 05:13:38;;;;;;;4.90;4.50;;;16.60;99.90;;;;;;485735;244;28832;-68
2022/08/26 05:15:39;;;;;;;4.53;4.13;;;16.50;99.90;;;;;;485735;244;28861;-68
2022/08/26 05:17:40;;;;;;;4.87;4.30;;;16.50;99.90;;;;;;485699;244;28863;-68
2022/08/26 05:19:42;;;;;;;4.83;4.43;;;16.50;99.90;;;;;;485755;245;28845;-68
2022/08/26 05:21:43;;;;;;;5.40;4.90;;;16.40;99.90;;;;;;485752;244;28953;-70
2022/08/26 05:23:45;;;;;;;5.03;4.53;;;16.50;99.90;;;;;;485762;244;28844;-68
2022/08/26 05:25:45;;;;;;;5.13;4.73;;;16.50;99.90;;;;;;485656;244;29333;-69
2022/08/26 05:27:47;;;;;;;5.07;4.60;;;16.60;99.90;;;;;;485690;244;29528;-68
2022/08/26 05:29:48;;;;;;;4.80;4.33;;;16.70;99.90;;;;;;485751;244;29363;-68
2022/08/26 05:31:49;;;;;;;5.60;5.10;;;16.60;99.90;;;;;;485749;244;29332;-71
2022/08/26 05:33:50;;;;;;;5.20;4.77;;;16.60;99.90;;;;;;485773;244;28830;-68
2022/08/26 05:35:52;;;;;;;4.93;4.53;;;16.60;99.90;;;;;;485751;244;28865;-69
2022/08/26 05:37:53;;;;;;;5.00;4.60;;;16.70;99.90;;;;;;485603;244;28844;-68
2022/08/26 05:39:54;;;;;;;5.47;5.00;;;16.80;99.90;;;;;;485781;244;28867;-68
2022/08/26 05:41:55;;;;;;;5.07;4.67;;;16.80;99.90;;;;;;485740;244;28859;-69
2022/08/26 05:43:57;;;;;;;5.50;5.00;;;16.80;99.90;;;;;;485729;244;28907;-68
2022/08/26 05:45:58;;;;;;;4.73;4.33;;;16.80;99.90;;;;;;485734;244;28853;-68
2022/08/26 05:47:59;;;;;;;5.50;5.00;;;16.90;99.90;;;;;;485692;245;29202;-72
2022/08/26 05:50:04;;;;;;;5.07;4.57;;;16.90;99.90;;;;;;485749;244;28946;-68
2022/08/26 05:52:02;;;;;;;5.17;4.77;;;17.00;99.90;;;;;;485449;245;29296;-69
2022/08/26 05:54:03;;;;;;;4.63;4.30;;;17.10;99.90;;;;;;485735;244;29347;-69
2022/08/26 05:56:04;;;;;;;5.60;4.90;;;17.20;99.90;;;;;;485657;244;29407;-69
2022/08/26 05:58:06;;;;;;;5.40;4.90;;;17.30;99.90;;;;;;485702;244;28876;-68
2022/08/26 06:00:08;;;;;;;5.60;5.10;;;17.40;99.90;;;;;;485732;244;28906;-68
2022/08/26 06:02:08;;;;;;;5.27;4.77;;;17.50;99.90;;;;;;485661;245;28852;-68
2022/08/26 06:04:09;;;;;;;4.73;4.13;;;17.50;99.90;;;;;;485731;244;28828;-69
2022/08/26 06:06:10;;;;;;;5.40;5.00;;;17.70;99.90;;;;;;485672;244;28880;-69
2022/08/26 06:08:15;;;;;;;6.67;5.13;;;17.80;99.90;;;;;;485723;244;28924;-69
2022/08/26 06:10:16;;;;;;;4.83;4.43;;;17.80;99.90;;;;;;485731;245;28836;-70
2022/08/26 06:12:17;;;;;;;5.60;5.00;;;17.90;99.90;;;;;;485739;244;28821;-69
2022/08/26 06:14:19;;;;;;;5.10;4.60;;;18.00;99.90;;;;;;485720;244;28844;-70
2022/08/26 06:16:21;;;;;;;5.77;4.40;;;18.00;99.90;;;;;;485692;244;29869;-68
2022/08/26 06:18:21;;;;;;;5.30;4.80;;;17.90;99.90;;;;;;485722;244;29245;-69
2022/08/26 06:20:22;;;;;;;5.53;4.93;;;17.90;99.90;;;;;;485750;244;29323;-71
2022/08/26 06:27:03;;;;;;;4.73;4.33;;;18.10;99.90;;;;;;485613;245;29423;-69
2022/08/26 06:29:04;;;;;;;5.13;4.70;;;18.20;99.90;;;;;;485728;244;29316;-70
2022/08/26 06:31:05;;;;;;;7.13;4.77;;;18.30;99.90;;;;;;485722;244;29332;-69
2022/08/26 06:33:06;;;;;;;5.50;5.10;;;18.40;99.90;;;;;;485679;244;28846;-68
2022/08/26 06:35:07;;;;;;;4.47;4.17;;;18.50;99.90;;;;;;485751;244;28865;-68
2022/08/26 06:37:09;;;;;;;4.77;4.37;;;18.50;99.90;;;;;;485676;244;28930;-70
2022/08/26 06:39:10;;;;;;;4.50;4.10;;;18.60;99.90;;;;;;485739;244;28918;-69
2022/08/26 06:41:11;;;;;;;4.07;3.77;;;18.80;99.90;;;;;;485722;244;28942;-69
2022/08/26 06:43:12;;;;;;;4.80;4.40;;;18.90;99.90;;;;;;485728;244;28941;-72
2022/08/26 06:45:14;;;;;;;5.13;4.70;;;19.00;99.90;;;;;;485712;244;28878;-68
2022/08/26 06:47:15;;;;;;;5.63;5.13;;;19.10;99.90;;;;;;485667;244;28871;-69
2022/08/26 06:49:16;;;;;;;4.33;4.03;;;19.20;99.90;;;;;;485729;245;29322;-68
2022/08/26 06:51:17;;;;;;;4.97;4.57;;;19.30;99.90;;;;;;485724;244;29293;-69
2022/08/26 06:53:19;;;;;;;5.10;4.70;;;19.40;99.90;;;;;;485747;244;29330;-69
2022/08/26 06:55:20;;;;;;;5.03;4.47;;;19.50;99.90;;;;;;485710;245;29354;-69
2022/08/26 06:57:21;;;;;;;5.30;4.80;;;19.60;99.90;;;;;;485713;244;28859;-69
2022/08/26 06:59:22;;;;;;;4.80;4.40;;;19.70;99.90;;;;;;485742;244;28923;-69
2022/08/26 07:01:24;;;;;;;5.10;4.60;;;19.80;99.90;;;;;;485734;244;28873;-69
2022/08/26 07:03:25;;;;;;;6.50;4.70;;;20.00;99.90;;;;;;485739;244;28872;-72
2022/08/26 07:05:26;;;;;;;4.83;4.43;;;20.10;99.90;;;;;;485731;244;28828;-70
2022/08/26 07:07:28;;;;;;;5.10;4.70;;;20.20;99.90;;;;;;485680;244;28960;-70
2022/08/26 07:09:34;;;;;;;4.97;4.57;;;20.30;99.90;;;;;;485726;244;28823;-69
2022/08/26 07:11:33;;;;;;;4.83;4.43;;;20.40;99.90;;;;;;485584;244;28845;-68
2022/08/26 07:13:37;;;;;;;5.20;4.80;;;20.80;99.90;;;;;;485711;244;28935;-68
2022/08/26 07:15:38;;;;;;;4.90;4.50;;;20.90;99.90;;;;;;485674;244;29374;-69
2022/08/26 07:17:40;;;;;;;6.60;5.87;;;21.10;99.90;;;;;;485614;244;28887;-69
2022/08/26 07:19:41;;;;;;;5.77;5.23;;;21.20;99.90;;;;;;485723;244;28932;-69
2022/08/26 07:21:42;;;;;;;6.37;5.77;;;21.30;99.90;;;;;;485660;244;28817;-69
2022/08/26 07:23:44;;;;;;;5.73;5.20;;;21.70;99.90;;;;;;485757;244;28887;-71
2022/08/26 07:25:45;;;;;;;8.80;5.67;;;21.70;99.90;;;;;;485717;244;28866;-69
2022/08/26 07:27:46;;;;;;;8.40;5.80;;;21.90;99.90;;;;;;485689;244;28983;-69
2022/08/26 07:29:47;;;;;;;6.73;5.20;;;22.00;99.90;;;;;;485734;244;29269;-72
2022/08/26 07:31:48;;;;;;;6.67;5.60;;;22.10;99.90;;;;;;485757;244;28828;-69
2022/08/26 07:33:50;;;;;;;7.77;6.13;;;22.10;99.90;;;;;;485762;244;29320;-70
2022/08/26 07:35:51;;;;;;;6.60;5.90;;;22.20;99.90;;;;;;485753;244;29269;-69
2022/08/26 07:37:52;;;;;;;8.50;5.53;;;22.40;99.90;;;;;;485693;244;29425;-69
2022/08/26 07:39:53;;;;;;;8.67;5.53;;;22.40;99.90;;;;;;485752;244;29423;-69
2022/08/26 07:41:55;;;;;;;6.77;5.40;;;22.50;99.90;;;;;;485743;244;28860;-69
2022/08/26 07:43:56;;;;;;;6.27;5.50;;;22.40;99.90;;;;;;485769;244;28859;-71
2022/08/26 07:45:57;;;;;;;5.70;5.00;;;22.50;99.90;;;;;;485744;244;28830;-68
2022/08/26 07:47:58;;;;;;;5.80;5.20;;;22.40;99.90;;;;;;485707;244;28982;-69
2022/08/26 07:50:00;;;;;;;6.30;5.70;;;22.50;99.90;;;;;;485763;244;28852;-68
2022/08/26 07:52:01;;;;;;;6.07;5.30;;;22.70;99.90;;;;;;485753;244;28900;-69
2022/08/26 07:54:02;;;;;;;5.87;5.27;;;22.90;99.90;;;;;;485740;244;28854;-70
2022/08/26 07:56:03;;;;;;;5.93;5.37;;;22.90;99.90;;;;;;485722;244;28838;-70
2022/08/26 07:58:05;;;;;;;6.20;5.60;;;23.10;99.90;;;;;;485756;244;29445;-70
2022/08/26 08:00:06;;;;;;;7.07;6.00;;;23.10;99.90;;;;;;485762;244;29815;-69
2022/08/26 08:02:07;;;;;;;6.40;5.70;;;23.10;99.90;;;;;;485793;244;29283;-69
2022/08/26 08:04:09;;;;;;;5.77;5.00;;;23.40;99.90;;;;;;485766;244;29421;-70
2022/08/26 08:06:10;;;;;;;7.13;5.50;;;23.50;99.90;;;;;;485684;244;28834;-69
2022/08/26 08:08:11;;;;;;;6.90;5.70;;;23.40;99.90;;;;;;485725;245;28868;-71
2022/08/26 08:10:12;;;;;;;6.10;5.50;;;23.40;99.90;;;;;;485751;244;28861;-69
2022/08/26 08:12:14;;;;;;;7.10;5.10;;;23.30;99.90;;;;;;485759;244;28822;-69
2022/08/26 08:14:15;;;;;;;6.37;5.47;;;23.40;99.90;;;;;;485761;244;28903;-71
2022/08/26 08:16:16;;;;;;;8.03;6.10;;;23.50;99.90;;;;;;485678;244;28838;-69
2022/08/26 08:18:17;;;;;;;8.10;5.50;;;23.40;99.90;;;;;;485733;244;28865;-69
2022/08/26 08:20:19;;;;;;;6.43;5.73;;;23.50;99.90;;;;;;485750;244;29228;-72
2022/08/26 08:22:22;;;;;;;8.83;5.77;;;23.50;99.90;;;;;;485753;244;28820;-68
2022/08/26 08:24:21;;;;;;;6.73;5.83;;;23.50;99.90;;;;;;485634;245;29428;-69
2022/08/26 08:26:22;;;;;;;6.03;5.43;;;23.50;99.90;;;;;;485682;244;29390;-69
2022/08/26 08:28:24;;;;;;;6.90;5.20;;;23.40;99.90;;;;;;485758;244;29314;-69
2022/08/26 08:30:25;;;;;;;5.40;4.90;;;23.40;99.90;;;;;;485775;244;28867;-72
2022/08/26 08:32:28;;;;;;;6.57;5.53;;;23.50;99.90;;;;;;485752;244;28822;-69
2022/08/26 08:34:27;;;;;;;5.23;4.63;;;23.50;99.90;;;;;;485574;245;28884;-70
2022/08/26 08:36:29;;;;;;;7.00;6.00;;;23.60;99.90;;;;;;485587;244;28904;-69
2022/08/26 08:38:30;;;;;;;6.37;5.57;;;23.80;99.90;;;;;;485561;244;28872;-69
2022/08/26 08:40:31;;;;;;;6.27;5.57;;;23.80;99.90;;;;;;485590;244;28885;-72
2022/08/26 08:42:32;;;;;;;6.80;6.20;;;23.80;99.90;;;;;;485618;244;28839;-69
2022/08/26 08:44:34;;;;;;;7.40;5.90;;;24.00;99.90;;;;;;485732;245;28866;-70
2022/08/26 08:46:35;;;;;;;7.10;6.40;;;24.10;99.90;;;;;;485645;244;28862;-69
2022/08/26 08:48:36;;;;;;;7.07;6.37;;;24.10;99.90;;;;;;485741;244;29265;-69
2022/08/26 08:50:37;;;;;;;6.50;5.90;;;24.00;99.90;;;;;;485731;244;29429;-72
2022/08/26 08:52:39;;;;;;;7.80;5.90;;;24.10;99.90;;;;;;485722;244;29317;-69
2022/08/26 08:54:40;;;;;;;8.87;6.57;;;24.30;99.90;;;;;;485745;244;28919;-70
2022/08/26 08:56:41;;;;;;;11.10;7.40;;;24.40;99.90;;;;;;485675;244;28927;-69
2022/08/26 08:58:42;;;;;;;7.27;5.83;;;24.40;99.90;;;;;;485757;244;28810;-70
2022/08/26 09:00:44;;;;;;;8.07;6.40;;;24.60;99.90;;;;;;485749;244;28942;-72
2022/08/26 09:02:45;;;;;;;7.43;6.47;;;24.60;99.90;;;;;;485717;244;28848;-69
2022/08/26 09:04:46;;;;;;;7.97;6.37;;;24.60;99.90;;;;;;485739;244;28861;-70
2022/08/26 09:06:47;;;;;;;7.93;6.40;;;24.70;99.90;;;;;;485657;244;28865;-69
2022/08/26 09:08:49;;;;;;;9.43;6.50;;;24.90;99.90;;;;;;485749;244;28816;-70
2022/08/26 09:10:50;;;;;;;8.10;6.17;;;24.90;99.90;;;;;;485764;244;28939;-71
2022/08/26 09:12:51;;;;;;;10.00;5.83;;;24.90;99.90;;;;;;485758;244;29264;-69
2022/08/26 09:14:55;;;;;;;7.57;6.60;;;25.00;99.90;;;;;;485751;244;29341;-69
2022/08/26 09:16:54;;;;;;;7.73;6.27;;;25.00;99.90;;;;;;485533;245;29536;-69
2022/08/26 09:18:55;;;;;;;7.20;6.47;;;25.10;99.90;;;;;;485752;244;28852;-69
2022/08/26 09:20:56;;;;;;;7.80;6.07;;;25.20;99.90;;;;;;485761;244;28988;-71
2022/08/26 09:22:57;;;;;;;6.30;5.70;;;25.30;99.90;;;;;;485738;244;28831;-69
2022/08/26 09:24:59;;;;;;;6.63;6.03;;;25.50;99.90;;;;;;485761;244;28939;-69
2022/08/26 09:27:00;;;;;;;6.63;6.03;;;25.30;99.90;;;;;;485673;244;28831;-72
2022/08/26 09:29:01;;;;;;;6.00;5.40;;;25.20;99.90;;;;;;483519;244;36272;-69
2022/08/26 09:31:02;;;;;;;6.87;5.63;;;25.10;99.90;;;;;;485770;244;27513;-71
2022/08/26 09:33:04;;;;;;;7.67;5.53;;;25.30;99.90;;;;;;485761;245;28813;-70
2022/08/26 09:35:06;;;;;;;6.00;5.40;;;25.30;99.90;;;;;;485725;244;29443;-71
2022/08/26 09:37:06;;;;;;;13.33;5.87;;;25.30;99.90;;;;;;487319;244;29338;-73
2022/08/26 09:39:07;;;;;;;5.50;5.00;;;25.40;99.90;;;;;;467625;253;29379;-69
2022/08/26 09:41:09;;;;;;;5.80;5.20;;;25.40;99.90;;;;;;468767;253;29341;-70
2022/08/26 09:43:10;;;;;;;7.63;5.80;;;25.40;99.90;;;;;;475599;250;28758;-69
2022/08/26 09:45:11;;;;;;;6.87;5.87;;;25.70;99.90;;;;;;475594;249;28993;-70
2022/08/26 09:47:12;;;;;;;8.43;6.13;;;25.90;99.90;;;;;;475550;250;28804;-73
2022/08/26 09:49:14;;;;;;;7.13;6.10;;;25.90;99.90;;;;;;475609;249;28871;-70
2022/08/26 09:51:15;;;;;;;6.50;5.90;;;25.70;99.90;;;;;;475495;249;28993;-70
2022/08/26 09:53:16;;;;;;;7.07;5.80;;;25.60;99.90;;;;;;475542;250;28878;-70
2022/08/26 09:55:17;;;;;;;7.07;5.73;;;25.70;99.90;;;;;;475610;249;29019;-70
2022/08/26 09:57:19;;;;;;;7.97;6.20;;;26.00;99.90;;;;;;475428;249;28919;-72
2022/08/26 09:59:20;;;;;;;6.13;5.53;;;25.90;99.90;;;;;;475589;249;29328;-70
2022/08/26 10:01:21;;;;;;;6.30;5.70;;;25.90;99.90;;;;;;475587;249;29367;-70
2022/08/26 10:03:22;;;;;;;7.00;6.20;;;26.00;99.90;;;;;;475594;249;29212;-70
2022/08/26 10:05:24;;;;;;;10.20;6.00;;;26.10;99.90;;;;;;475563;249;28989;-70
2022/08/26 10:07:25;;;;;;;6.67;5.73;;;25.90;99.90;;;;;;475548;249;28908;-71
2022/08/26 10:09:26;;;;;;;7.00;6.20;;;25.90;99.90;;;;;;475603;249;28863;-70
2022/08/26 10:11:27;;;;;;;7.47;5.67;;;26.00;99.90;;;;;;475576;249;28808;-71
2022/08/26 10:13:29;;;;;;;10.07;6.40;;;26.00;99.90;;;;;;475575;249;28852;-70
2022/08/26 10:15:30;;;;;;;7.50;5.77;;;26.20;99.90;;;;;;475574;249;28773;-70
2022/08/26 10:17:31;;;;;;;7.10;5.10;;;26.00;99.90;;;;;;475535;249;28910;-72
2022/08/26 10:19:32;;;;;;;6.40;5.80;;;25.80;99.90;;;;;;475596;249;28899;-70
2022/08/26 10:21:34;;;;;;;7.67;6.20;;;25.90;99.90;;;;;;475584;249;29382;-70
2022/08/26 10:23:35;;;;;;;7.40;6.00;;;26.00;99.90;;;;;;475564;249;30393;-70
2022/08/26 10:25:36;;;;;;;9.13;6.53;;;26.40;99.90;;;;;;475581;249;29397;-70
2022/08/26 10:27:38;;;;;;;9.47;6.43;;;26.40;99.90;;;;;;475512;249;29280;-73
2022/08/26 10:29:39;;;;;;;7.70;5.70;;;26.60;99.90;;;;;;475584;250;28880;-70
2022/08/26 10:31:40;;;;;;;5.60;5.03;;;26.60;99.90;;;;;;475608;249;28803;-70
2022/08/26 10:33:41;;;;;;;5.70;5.20;;;26.80;99.90;;;;;;475603;249;28820;-69
2022/08/26 10:35:42;;;;;;;5.57;5.07;;;26.80;99.90;;;;;;475577;249;28776;-70
2022/08/26 10:37:45;;;;;;;8.37;5.60;;;26.90;99.90;;;;;;475579;249;28969;-72